Armada, MI

2:55 PM EDT on October 30, 2014 (GMT -0400)
Washington, MI | Change Station
CLOSE
Current Station
Personal Weather Station
Location: Washington, MI
Elevation: 846 ft
Nearby Weather Stations

Elev 846 ft 42.79 °N, 83.04 °W | Updated 1 second ago

Overcast
Overcast
49.1 °F
Feels Like 48 °F
N
3.5
Wind Variable Wind from WSW
Gusts 9.3 mph

Today
High -- | Low -- °F
--% Chance of Precip.
Yesterday
High -- | Low -- °F
Precip. -- in
8:03 AM 6:26 PM
Waxing Crescent, 46% visible
Pressure 30.11 in
Visibility 12.0 miles
Clouds Mostly Cloudy 4100 ft
Mostly Cloudy 18000 ft
Windchill 48 °F
Dew Point 38 °F
Humidity 66%
Rainfall 0.00 in
Snow Depth Not available.
UV 2 out of 12
Pollen .30 out of 12
Air Quality Not available.
Flu Activity Not available.
METAR KMTC 301755Z COR 24005KT 12SM BKN041 BKN180 10/01 A3007 RMK SLP194 T01010008 10103 20035 58015 COR 1756

More Conditions Fewer Conditions

Pressure 30.11 in
Visibility 12.0 miles
Clouds Mostly Cloudy 4100 ft
Mostly Cloudy 18000 ft
Windchill 48 °F
Dew Point 38 °F
Humidity 66%
Rainfall 0.00 in
Snow Depth Not available.
UV 2 out of 12
Pollen .30 out of 12
Air Quality Not available.
Flu Activity Not available.
METAR KMTC 301755Z COR 24005KT 12SM BKN041 BKN180 10/01 A3007 RMK SLP194 T01010008 10103 20035 58015 COR 1756

More Conditions Fewer Conditions

10-Day Weather Forecast

Almanac

Astronomy

Oct. 30, 2014 Rise Set
Actual Time
Civil Twilight
Nautical Twilight
Astronomical Twilight
Moon
Length of Visible Light
Length of Day
Tomorrow will be .
, % of the Moon is Illuminated

Today's Extremes

State Highs State Lows

Community

WunderPhotos

Upload Photos

1,766,425 photos uploaded!

WunderBlogs® & News

Nearby

Air Quality

  Air Quality AQ Index Pollutant
Not available.

Snow Depth

Station Depth Elevation

Earthquake Activity

City Distance Mag. Time & Date
Minimum magnitude displayed is 2.5.

Coastal Water Temperatures

Place Temperature

Nearby Weather Stations